sensor_id;sensor_type;location;lat;lon;timestamp;temperature;humidity
49238;DHT22;35069;47.906;1.892;2022-07-29T00:00:38;21.60;50.00
49238;DHT22;35069;47.906;1.892;2022-07-29T00:03:04;21.50;50.00
49238;DHT22;35069;47.906;1.892;2022-07-29T00:05:30;21.60;50.10
49238;DHT22;35069;47.906;1.892;2022-07-29T00:07:56;21.50;50.00
49238;DHT22;35069;47.906;1.892;2022-07-29T00:10:21;21.50;50.10
49238;DHT22;35069;47.906;1.892;2022-07-29T00:12:47;21.50;50.20
49238;DHT22;35069;47.906;1.892;2022-07-29T00:15:13;21.50;50.20
49238;DHT22;35069;47.906;1.892;2022-07-29T00:17:39;21.50;50.00
49238;DHT22;35069;47.906;1.892;2022-07-29T00:20:05;21.60;50.00
49238;DHT22;35069;47.906;1.892;2022-07-29T00:22:30;21.60;49.80
49238;DHT22;35069;47.906;1.892;2022-07-29T00:24:56;21.50;49.70
49238;DHT22;35069;47.906;1.892;2022-07-29T00:27:22;21.50;49.70
49238;DHT22;35069;47.906;1.892;2022-07-29T00:29:47;21.50;50.00
49238;DHT22;35069;47.906;1.892;2022-07-29T00:32:13;21.50;50.00
49238;DHT22;35069;47.906;1.892;2022-07-29T00:34:39;21.50;50.10
49238;DHT22;35069;47.906;1.892;2022-07-29T00:37:24;21.40;50.00
49238;DHT22;35069;47.906;1.892;2022-07-29T00:39:49;21.40;50.00
49238;DHT22;35069;47.906;1.892;2022-07-29T00:42:16;21.30;50.10
49238;DHT22;35069;47.906;1.892;2022-07-29T00:44:42;21.30;50.40
49238;DHT22;35069;47.906;1.892;2022-07-29T00:47:08;21.20;50.50
49238;DHT22;35069;47.906;1.892;2022-07-29T00:49:35;21.30;50.50
49238;DHT22;35069;47.906;1.892;2022-07-29T00:52:04;21.20;50.60
49238;DHT22;35069;47.906;1.892;2022-07-29T00:54:31;21.20;50.70
49238;DHT22;35069;47.906;1.892;2022-07-29T00:56:58;21.20;50.80
49238;DHT22;35069;47.906;1.892;2022-07-29T00:59:25;21.20;50.90
49238;DHT22;35069;47.906;1.892;2022-07-29T01:01:52;21.20;50.90
49238;DHT22;35069;47.906;1.892;2022-07-29T01:04:19;21.10;51.00
49238;DHT22;35069;47.906;1.892;2022-07-29T01:06:45;21.10;51.00
49238;DHT22;35069;47.906;1.892;2022-07-29T01:09:12;21.00;51.10
49238;DHT22;35069;47.906;1.892;2022-07-29T01:11:38;21.00;51.20
49238;DHT22;35069;47.906;1.892;2022-07-29T01:14:05;21.00;51.30
49238;DHT22;35069;47.906;1.892;2022-07-29T01:16:36;20.90;51.50
49238;DHT22;35069;47.906;1.892;2022-07-29T01:19:16;20.80;51.70
49238;DHT22;35069;47.906;1.892;2022-07-29T01:21:55;20.80;52.20
49238;DHT22;35069;47.906;1.892;2022-07-29T01:24:30;20.80;52.20
49238;DHT22;35069;47.906;1.892;2022-07-29T01:27:11;20.80;52.20
49238;DHT22;35069;47.906;1.892;2022-07-29T01:29:47;20.80;52.60
49238;DHT22;35069;47.906;1.892;2022-07-29T01:32:19;20.80;52.50
49238;DHT22;35069;47.906;1.892;2022-07-29T01:40:42;20.90;51.80
49238;DHT22;35069;47.906;1.892;2022-07-29T01:43:16;20.80;52.20
49238;DHT22;35069;47.906;1.892;2022-07-29T01:45:50;20.80;51.90
49238;DHT22;35069;47.906;1.892;2022-07-29T01:48:21;20.70;52.70
49238;DHT22;35069;47.906;1.892;2022-07-29T01:50:49;20.70;52.30
49238;DHT22;35069;47.906;1.892;2022-07-29T01:53:23;20.50;52.40
49238;DHT22;35069;47.906;1.892;2022-07-29T01:55:51;20.50;52.80
49238;DHT22;35069;47.906;1.892;2022-07-29T01:58:19;20.50;52.60
49238;DHT22;35069;47.906;1.892;2022-07-29T02:00:47;20.40;52.70
49238;DHT22;35069;47.906;1.892;2022-07-29T02:03:14;20.40;53.00
49238;DHT22;35069;47.906;1.892;2022-07-29T02:05:44;20.40;53.10
49238;DHT22;35069;47.906;1.892;2022-07-29T02:08:12;20.30;53.30
49238;DHT22;35069;47.906;1.892;2022-07-29T02:10:40;20.30;53.50
49238;DHT22;35069;47.906;1.892;2022-07-29T02:13:07;20.30;53.50
49238;DHT22;35069;47.906;1.892;2022-07-29T02:15:35;20.40;53.40
49238;DHT22;35069;47.906;1.892;2022-07-29T02:18:05;20.50;53.20
49238;DHT22;35069;47.906;1.892;2022-07-29T02:20:31;20.50;53.20
49238;DHT22;35069;47.906;1.892;2022-07-29T02:22:59;20.50;53.30
49238;DHT22;35069;47.906;1.892;2022-07-29T02:25:26;20.50;53.30
49238;DHT22;35069;47.906;1.892;2022-07-29T02:27:54;20.50;53.30
49238;DHT22;35069;47.906;1.892;2022-07-29T02:30:22;20.60;53.30
49238;DHT22;35069;47.906;1.892;2022-07-29T02:32:49;20.60;53.30
49238;DHT22;35069;47.906;1.892;2022-07-29T02:35:17;20.60;53.10
49238;DHT22;35069;47.906;1.892;2022-07-29T02:37:44;20.60;53.10
49238;DHT22;35069;47.906;1.892;2022-07-29T02:40:31;20.60;53.10
49238;DHT22;35069;47.906;1.892;2022-07-29T02:42:58;20.60;53.10
49238;DHT22;35069;47.906;1.892;2022-07-29T02:45:24;20.60;53.20
49238;DHT22;35069;47.906;1.892;2022-07-29T02:47:50;20.60;53.20
49238;DHT22;35069;47.906;1.892;2022-07-29T02:50:21;20.60;53.30
49238;DHT22;35069;47.906;1.892;2022-07-29T02:52:53;20.60;53.30
49238;DHT22;35069;47.906;1.892;2022-07-29T02:55:26;20.60;53.30
49238;DHT22;35069;47.906;1.892;2022-07-29T02:58:08;20.70;53.20
49238;DHT22;35069;47.906;1.892;2022-07-29T03:00:39;20.80;53.30
49238;DHT22;35069;47.906;1.892;2022-07-29T03:03:09;20.80;52.90
49238;DHT22;35069;47.906;1.892;2022-07-29T03:05:36;20.80;53.00
49238;DHT22;35069;47.906;1.892;2022-07-29T03:08:07;20.80;53.10
49238;DHT22;35069;47.906;1.892;2022-07-29T03:10:34;20.80;53.10
49238;DHT22;35069;47.906;1.892;2022-07-29T03:13:02;20.80;52.90
49238;DHT22;35069;47.906;1.892;2022-07-29T03:15:29;20.80;52.90
49238;DHT22;35069;47.906;1.892;2022-07-29T03:17:55;20.80;52.80
49238;DHT22;35069;47.906;1.892;2022-07-29T03:20:21;20.80;53.00
49238;DHT22;35069;47.906;1.892;2022-07-29T03:22:47;20.80;53.00
49238;DHT22;35069;47.906;1.892;2022-07-29T03:25:14;20.80;52.80
49238;DHT22;35069;47.906;1.892;2022-07-29T03:27:41;20.80;52.80
49238;DHT22;35069;47.906;1.892;2022-07-29T03:30:08;20.80;52.80
49238;DHT22;35069;47.906;1.892;2022-07-29T03:32:34;20.80;52.90
49238;DHT22;35069;47.906;1.892;2022-07-29T03:35:00;20.80;53.00
49238;DHT22;35069;47.906;1.892;2022-07-29T03:37:25;20.70;52.90
49238;DHT22;35069;47.906;1.892;2022-07-29T03:39:52;20.70;53.10
49238;DHT22;35069;47.906;1.892;2022-07-29T03:42:21;20.70;53.10
49238;DHT22;35069;47.906;1.892;2022-07-29T03:44:50;20.60;53.10
49238;DHT22;35069;47.906;1.892;2022-07-29T03:47:20;20.50;53.20
49238;DHT22;35069;47.906;1.892;2022-07-29T03:49:49;20.50;53.30
49238;DHT22;35069;47.906;1.892;2022-07-29T03:52:16;20.60;53.30
49238;DHT22;35069;47.906;1.892;2022-07-29T03:54:42;20.50;53.70
49238;DHT22;35069;47.906;1.892;2022-07-29T03:57:09;20.50;53.10
49238;DHT22;35069;47.906;1.892;2022-07-29T03:59:36;20.50;52.90
49238;DHT22;35069;47.906;1.892;2022-07-29T04:02:04;20.60;52.80
49238;DHT22;35069;47.906;1.892;2022-07-29T04:04:33;20.60;52.70
49238;DHT22;35069;47.906;1.892;2022-07-29T04:07:00;20.60;52.40
49238;DHT22;35069;47.906;1.892;2022-07-29T04:09:26;20.60;52.10
49238;DHT22;35069;47.906;1.892;2022-07-29T04:11:51;20.60;51.70
49238;DHT22;35069;47.906;1.892;2022-07-29T04:14:19;20.60;51.70
49238;DHT22;35069;47.906;1.892;2022-07-29T04:16:45;20.60;51.50
49238;DHT22;35069;47.906;1.892;2022-07-29T04:19:11;20.60;51.30
49238;DHT22;35069;47.906;1.892;2022-07-29T04:21:38;20.60;51.10
49238;DHT22;35069;47.906;1.892;2022-07-29T04:24:04;20.70;51.10
49238;DHT22;35069;47.906;1.892;2022-07-29T04:26:30;20.60;51.00
49238;DHT22;35069;47.906;1.892;2022-07-29T04:28:56;20.70;51.10
49238;DHT22;35069;47.906;1.892;2022-07-29T04:31:21;20.60;51.20
49238;DHT22;35069;47.906;1.892;2022-07-29T04:33:47;20.70;51.30
49238;DHT22;35069;47.906;1.892;2022-07-29T04:36:13;20.60;51.30
49238;DHT22;35069;47.906;1.892;2022-07-29T04:38:39;20.70;51.40
49238;DHT22;35069;47.906;1.892;2022-07-29T04:41:05;20.50;51.50
49238;DHT22;35069;47.906;1.892;2022-07-29T04:43:33;20.50;51.60
49238;DHT22;35069;47.906;1.892;2022-07-29T04:45:58;20.40;51.70
49238;DHT22;35069;47.906;1.892;2022-07-29T04:48:25;20.40;51.80
49238;DHT22;35069;47.906;1.892;2022-07-29T04:50:50;20.40;51.90
49238;DHT22;35069;47.906;1.892;2022-07-29T04:53:16;20.40;52.00
49238;DHT22;35069;47.906;1.892;2022-07-29T04:55:41;20.40;52.00
49238;DHT22;35069;47.906;1.892;2022-07-29T04:58:07;20.40;52.00
49238;DHT22;35069;47.906;1.892;2022-07-29T05:00:33;20.40;52.00
49238;DHT22;35069;47.906;1.892;2022-07-29T05:02:59;20.40;52.10
49238;DHT22;35069;47.906;1.892;2022-07-29T05:05:25;20.40;51.90
49238;DHT22;35069;47.906;1.892;2022-07-29T05:07:50;20.40;51.90
49238;DHT22;35069;47.906;1.892;2022-07-29T05:10:16;20.40;51.80
49238;DHT22;35069;47.906;1.892;2022-07-29T05:12:42;20.50;51.90
49238;DHT22;35069;47.906;1.892;2022-07-29T05:15:08;20.50;51.90
49238;DHT22;35069;47.906;1.892;2022-07-29T05:17:33;20.60;51.80
49238;DHT22;35069;47.906;1.892;2022-07-29T05:19:59;20.60;51.70
49238;DHT22;35069;47.906;1.892;2022-07-29T05:22:25;20.60;51.50
49238;DHT22;35069;47.906;1.892;2022-07-29T05:24:50;20.70;51.40
49238;DHT22;35069;47.906;1.892;2022-07-29T05:27:16;20.70;51.50
49238;DHT22;35069;47.906;1.892;2022-07-29T05:29:55;20.70;51.40
49238;DHT22;35069;47.906;1.892;2022-07-29T05:32:23;20.80;51.40
49238;DHT22;35069;47.906;1.892;2022-07-29T05:34:49;20.90;51.20
49238;DHT22;35069;47.906;1.892;2022-07-29T05:37:15;20.90;51.20
49238;DHT22;35069;47.906;1.892;2022-07-29T05:39:40;21.00;51.20
49238;DHT22;35069;47.906;1.892;2022-07-29T05:42:12;21.00;50.90
49238;DHT22;35069;47.906;1.892;2022-07-29T05:44:38;21.10;50.70
49238;DHT22;35069;47.906;1.892;2022-07-29T05:47:04;21.10;50.50
49238;DHT22;35069;47.906;1.892;2022-07-29T05:49:30;21.20;50.30
49238;DHT22;35069;47.906;1.892;2022-07-29T05:51:56;21.30;49.90
49238;DHT22;35069;47.906;1.892;2022-07-29T05:54:21;21.20;49.60
49238;DHT22;35069;47.906;1.892;2022-07-29T05:56:47;21.20;49.70
49238;DHT22;35069;47.906;1.892;2022-07-29T05:59:13;21.30;49.80
49238;DHT22;35069;47.906;1.892;2022-07-29T06:01:38;21.30;49.60
49238;DHT22;35069;47.906;1.892;2022-07-29T06:04:05;21.30;49.50
49238;DHT22;35069;47.906;1.892;2022-07-29T06:06:32;21.40;49.50
49238;DHT22;35069;47.906;1.892;2022-07-29T06:08:58;21.40;49.40
49238;DHT22;35069;47.906;1.892;2022-07-29T06:11:24;21.40;49.30
49238;DHT22;35069;47.906;1.892;2022-07-29T06:13:49;21.40;49.40
49238;DHT22;35069;47.906;1.892;2022-07-29T06:16:15;21.50;49.40
49238;DHT22;35069;47.906;1.892;2022-07-29T06:18:41;21.60;49.20
49238;DHT22;35069;47.906;1.892;2022-07-29T06:21:10;21.80;49.10
49238;DHT22;35069;47.906;1.892;2022-07-29T06:23:37;21.90;48.70
49238;DHT22;35069;47.906;1.892;2022-07-29T06:26:03;22.00;48.80
49238;DHT22;35069;47.906;1.892;2022-07-29T06:28:28;22.20;48.60
49238;DHT22;35069;47.906;1.892;2022-07-29T06:30:54;22.30;48.20
49238;DHT22;35069;47.906;1.892;2022-07-29T06:33:19;22.40;48.00
49238;DHT22;35069;47.906;1.892;2022-07-29T06:35:45;22.40;47.80
49238;DHT22;35069;47.906;1.892;2022-07-29T06:38:13;22.60;47.80
49238;DHT22;35069;47.906;1.892;2022-07-29T06:40:45;22.60;47.80
49238;DHT22;35069;47.906;1.892;2022-07-29T06:45:54;22.60;47.70
49238;DHT22;35069;47.906;1.892;2022-07-29T06:48:19;22.70;47.80
49238;DHT22;35069;47.906;1.892;2022-07-29T06:50:45;22.80;47.80
49238;DHT22;35069;47.906;1.892;2022-07-29T06:53:11;22.90;47.70
49238;DHT22;35069;47.906;1.892;2022-07-29T06:55:36;23.00;47.50
49238;DHT22;35069;47.906;1.892;2022-07-29T06:58:02;23.00;47.10
49238;DHT22;35069;47.906;1.892;2022-07-29T07:00:28;23.40;47.20
49238;DHT22;35069;47.906;1.892;2022-07-29T07:02:53;24.00;46.50
49238;DHT22;35069;47.906;1.892;2022-07-29T07:05:19;24.20;45.70
49238;DHT22;35069;47.906;1.892;2022-07-29T07:07:44;24.30;45.60
49238;DHT22;35069;47.906;1.892;2022-07-29T07:10:10;24.20;45.10
49238;DHT22;35069;47.906;1.892;2022-07-29T07:12:36;23.80;44.80
49238;DHT22;35069;47.906;1.892;2022-07-29T07:15:01;23.60;45.00
49238;DHT22;35069;47.906;1.892;2022-07-29T07:17:28;23.40;45.30
49238;DHT22;35069;47.906;1.892;2022-07-29T07:19:53;23.30;45.50
49238;DHT22;35069;47.906;1.892;2022-07-29T07:22:19;23.30;45.80
49238;DHT22;35069;47.906;1.892;2022-07-29T07:24:45;23.40;45.70
49238;DHT22;35069;47.906;1.892;2022-07-29T07:27:10;23.50;45.10
49238;DHT22;35069;47.906;1.892;2022-07-29T07:29:36;23.40;44.90
49238;DHT22;35069;47.906;1.892;2022-07-29T07:32:02;23.40;44.90
49238;DHT22;35069;47.906;1.892;2022-07-29T07:34:27;23.30;45.10
49238;DHT22;35069;47.906;1.892;2022-07-29T07:36:53;23.20;45.00
49238;DHT22;35069;47.906;1.892;2022-07-29T07:39:18;23.10;45.40
49238;DHT22;35069;47.906;1.892;2022-07-29T07:41:44;23.20;45.60
49238;DHT22;35069;47.906;1.892;2022-07-29T07:44:09;23.30;45.40
49238;DHT22;35069;47.906;1.892;2022-07-29T07:46:35;23.40;45.50
49238;DHT22;35069;47.906;1.892;2022-07-29T07:49:01;23.80;45.80
49238;DHT22;35069;47.906;1.892;2022-07-29T07:51:26;24.10;45.60
49238;DHT22;35069;47.906;1.892;2022-07-29T07:53:52;24.00;45.30
49238;DHT22;35069;47.906;1.892;2022-07-29T07:56:17;24.00;45.40
49238;DHT22;35069;47.906;1.892;2022-07-29T07:58:43;24.10;45.60
49238;DHT22;35069;47.906;1.892;2022-07-29T08:01:09;24.30;45.90
49238;DHT22;35069;47.906;1.892;2022-07-29T08:03:35;24.50;45.80
49238;DHT22;35069;47.906;1.892;2022-07-29T08:06:01;24.70;45.50
49238;DHT22;35069;47.906;1.892;2022-07-29T08:08:27;25.60;45.70
49238;DHT22;35069;47.906;1.892;2022-07-29T08:10:53;26.10;44.60
49238;DHT22;35069;47.906;1.892;2022-07-29T08:13:23;26.10;44.20
49238;DHT22;35069;47.906;1.892;2022-07-29T08:15:50;25.90;44.20
49238;DHT22;35069;47.906;1.892;2022-07-29T08:18:26;25.90;44.20
49238;DHT22;35069;47.906;1.892;2022-07-29T08:20:53;26.50;45.00
49238;DHT22;35069;47.906;1.892;2022-07-29T08:23:18;26.90;44.30
49238;DHT22;35069;47.906;1.892;2022-07-29T08:25:48;27.40;44.30
49238;DHT22;35069;47.906;1.892;2022-07-29T08:28:14;28.00;43.70
49238;DHT22;35069;47.906;1.892;2022-07-29T08:30:39;28.30;43.30
49238;DHT22;35069;47.906;1.892;2022-07-29T08:33:05;28.30;42.70
49238;DHT22;35069;47.906;1.892;2022-07-29T08:35:31;27.80;42.40
49238;DHT22;35069;47.906;1.892;2022-07-29T08:37:56;27.30;42.80
49238;DHT22;35069;47.906;1.892;2022-07-29T08:40:22;27.00;43.20
49238;DHT22;35069;47.906;1.892;2022-07-29T08:42:49;27.30;43.90
49238;DHT22;35069;47.906;1.892;2022-07-29T08:45:15;28.40;43.90
49238;DHT22;35069;47.906;1.892;2022-07-29T08:47:41;29.30;42.70
49238;DHT22;35069;47.906;1.892;2022-07-29T08:50:11;29.60;41.50
49238;DHT22;35069;47.906;1.892;2022-07-29T08:52:39;29.60;41.00
49238;DHT22;35069;47.906;1.892;2022-07-29T08:55:06;29.50;41.10
49238;DHT22;35069;47.906;1.892;2022-07-29T08:57:33;29.20;40.80
49238;DHT22;35069;47.906;1.892;2022-07-29T09:00:01;28.90;40.80
49238;DHT22;35069;47.906;1.892;2022-07-29T09:02:29;28.60;41.20
49238;DHT22;35069;47.906;1.892;2022-07-29T09:05:00;28.50;41.40
49238;DHT22;35069;47.906;1.892;2022-07-29T09:07:26;28.40;41.60
49238;DHT22;35069;47.906;1.892;2022-07-29T09:09:52;28.50;42.20
49238;DHT22;35069;47.906;1.892;2022-07-29T09:12:18;28.60;42.20
49238;DHT22;35069;47.906;1.892;2022-07-29T09:14:44;28.50;41.90
49238;DHT22;35069;47.906;1.892;2022-07-29T09:17:10;28.50;41.70
49238;DHT22;35069;47.906;1.892;2022-07-29T09:19:36;28.30;41.70
49238;DHT22;35069;47.906;1.892;2022-07-29T09:22:04;28.20;42.00
49238;DHT22;35069;47.906;1.892;2022-07-29T09:24:44;28.10;42.00
49238;DHT22;35069;47.906;1.892;2022-07-29T09:29:37;28.50;42.30
49238;DHT22;35069;47.906;1.892;2022-07-29T09:32:08;29.10;43.60
49238;DHT22;35069;47.906;1.892;2022-07-29T09:34:34;30.20;44.10
49238;DHT22;35069;47.906;1.892;2022-07-29T09:37:00;31.20;42.80
49238;DHT22;35069;47.906;1.892;2022-07-29T09:42:01;31.90;39.40
49238;DHT22;35069;47.906;1.892;2022-07-29T09:44:49;33.00;39.20
49238;DHT22;35069;47.906;1.892;2022-07-29T09:47:16;35.50;36.70
49238;DHT22;35069;47.906;1.892;2022-07-29T09:49:53;36.40;35.30
49238;DHT22;35069;47.906;1.892;2022-07-29T09:52:20;37.30;33.20
49238;DHT22;35069;47.906;1.892;2022-07-29T09:54:46;37.00;33.80
49238;DHT22;35069;47.906;1.892;2022-07-29T09:57:30;36.70;34.10
49238;DHT22;35069;47.906;1.892;2022-07-29T10:00:06;36.20;33.20
49238;DHT22;35069;47.906;1.892;2022-07-29T10:02:35;36.40;34.40
49238;DHT22;35069;47.906;1.892;2022-07-29T10:05:03;37.10;35.30
49238;DHT22;35069;47.906;1.892;2022-07-29T10:07:44;37.70;34.80
49238;DHT22;35069;47.906;1.892;2022-07-29T10:10:10;37.60;32.60
49238;DHT22;35069;47.906;1.892;2022-07-29T10:12:51;38.10;34.00
49238;DHT22;35069;47.906;1.892;2022-07-29T10:15:16;38.40;31.60
49238;DHT22;35069;47.906;1.892;2022-07-29T10:17:43;39.80;33.40
49238;DHT22;35069;47.906;1.892;2022-07-29T10:20:10;41.80;32.20
49238;DHT22;35069;47.906;1.892;2022-07-29T10:22:36;44.40;31.00
49238;DHT22;35069;47.906;1.892;2022-07-29T10:25:01;46.10;29.70
49238;DHT22;35069;47.906;1.892;2022-07-29T10:27:27;46.80;28.70
49238;DHT22;35069;47.906;1.892;2022-07-29T10:29:53;47.80;28.00
49238;DHT22;35069;47.906;1.892;2022-07-29T10:32:56;47.80;27.40
49238;DHT22;35069;47.906;1.892;2022-07-29T10:41:31;47.20;25.50
49238;DHT22;35069;47.906;1.892;2022-07-29T10:46:28;47.80;26.70
49238;DHT22;35069;47.906;1.892;2022-07-29T10:49:16;49.70;26.60
49238;DHT22;35069;47.906;1.892;2022-07-29T10:52:06;50.80;25.90
49238;DHT22;35069;47.906;1.892;2022-07-29T10:54:44;51.60;25.40
49238;DHT22;35069;47.906;1.892;2022-07-29T11:00:32;52.30;24.80
49238;DHT22;35069;47.906;1.892;2022-07-29T11:02:57;53.00;24.10
49238;DHT22;35069;47.906;1.892;2022-07-29T11:05:23;53.00;24.80
49238;DHT22;35069;47.906;1.892;2022-07-29T11:10:34;53.20;24.30
49238;DHT22;35069;47.906;1.892;2022-07-29T11:12:59;53.10;24.30
49238;DHT22;35069;47.906;1.892;2022-07-29T11:15:25;53.00;24.90
49238;DHT22;35069;47.906;1.892;2022-07-29T11:20:45;52.10;23.90
49238;DHT22;35069;47.906;1.892;2022-07-29T11:25:42;46.00;24.10
49238;DHT22;35069;47.906;1.892;2022-07-29T11:28:13;42.80;25.10
49238;DHT22;35069;47.906;1.892;2022-07-29T11:33:31;37.90;27.50
49238;DHT22;35069;47.906;1.892;2022-07-29T11:36:10;36.20;28.80
49238;DHT22;35069;47.906;1.892;2022-07-29T11:38:36;34.80;29.30
49238;DHT22;35069;47.906;1.892;2022-07-29T11:44:15;33.30;30.00
49238;DHT22;35069;47.906;1.892;2022-07-29T11:46:48;32.80;31.40
49238;DHT22;35069;47.906;1.892;2022-07-29T11:49:25;32.40;30.90
49238;DHT22;35069;47.906;1.892;2022-07-29T11:51:55;32.30;32.00
49238;DHT22;35069;47.906;1.892;2022-07-29T11:54:35;32.10;31.40
49238;DHT22;35069;47.906;1.892;2022-07-29T11:57:00;32.00;31.50
49238;DHT22;35069;47.906;1.892;2022-07-29T11:59:26;31.60;31.70
49238;DHT22;35069;47.906;1.892;2022-07-29T12:02:01;31.20;32.00
49238;DHT22;35069;47.906;1.892;2022-07-29T12:04:27;31.10;32.60
49238;DHT22;35069;47.906;1.892;2022-07-29T12:06:54;31.00;32.40
49238;DHT22;35069;47.906;1.892;2022-07-29T12:09:20;30.90;32.80
49238;DHT22;35069;47.906;1.892;2022-07-29T12:11:47;30.80;32.90
49238;DHT22;35069;47.906;1.892;2022-07-29T12:14:32;30.90;33.00
49238;DHT22;35069;47.906;1.892;2022-07-29T12:16:59;31.20;33.40
49238;DHT22;35069;47.906;1.892;2022-07-29T12:19:27;31.30;32.90
49238;DHT22;35069;47.906;1.892;2022-07-29T12:21:54;31.50;32.90
49238;DHT22;35069;47.906;1.892;2022-07-29T12:24:21;31.40;32.80
49238;DHT22;35069;47.906;1.892;2022-07-29T12:26:51;31.30;32.80
49238;DHT22;35069;47.906;1.892;2022-07-29T12:29:17;31.20;32.80
49238;DHT22;35069;47.906;1.892;2022-07-29T12:31:43;30.90;33.00
49238;DHT22;35069;47.906;1.892;2022-07-29T12:34:10;30.70;33.20
49238;DHT22;35069;47.906;1.892;2022-07-29T12:36:37;30.40;33.30
49238;DHT22;35069;47.906;1.892;2022-07-29T12:39:03;30.20;33.70
49238;DHT22;35069;47.906;1.892;2022-07-29T12:41:29;30.00;34.00
49238;DHT22;35069;47.906;1.892;2022-07-29T12:43:55;29.80;34.50
49238;DHT22;35069;47.906;1.892;2022-07-29T12:46:21;29.70;34.70
49238;DHT22;35069;47.906;1.892;2022-07-29T12:48:51;29.60;34.80
49238;DHT22;35069;47.906;1.892;2022-07-29T12:51:38;29.60;34.90
49238;DHT22;35069;47.906;1.892;2022-07-29T12:54:14;29.50;35.30
49238;DHT22;35069;47.906;1.892;2022-07-29T12:56:43;29.40;35.00
49238;DHT22;35069;47.906;1.892;2022-07-29T12:59:17;29.40;35.10
49238;DHT22;35069;47.906;1.892;2022-07-29T13:01:43;29.50;35.30
49238;DHT22;35069;47.906;1.892;2022-07-29T13:04:09;29.70;35.50
49238;DHT22;35069;47.906;1.892;2022-07-29T13:09:11;29.90;36.20
49238;DHT22;35069;47.906;1.892;2022-07-29T13:11:42;30.10;36.50
49238;DHT22;35069;47.906;1.892;2022-07-29T13:14:10;30.20;36.50
49238;DHT22;35069;47.906;1.892;2022-07-29T13:16:37;30.20;36.50
49238;DHT22;35069;47.906;1.892;2022-07-29T13:19:42;30.30;36.50
49238;DHT22;35069;47.906;1.892;2022-07-29T13:22:09;30.30;36.60
49238;DHT22;35069;47.906;1.892;2022-07-29T13:24:52;30.10;36.50
49238;DHT22;35069;47.906;1.892;2022-07-29T13:27:19;30.20;36.70
49238;DHT22;35069;47.906;1.892;2022-07-29T13:29:46;30.40;36.70
49238;DHT22;35069;47.906;1.892;2022-07-29T13:32:12;30.50;36.60
49238;DHT22;35069;47.906;1.892;2022-07-29T13:34:39;30.70;36.50
49238;DHT22;35069;47.906;1.892;2022-07-29T13:37:05;30.80;36.20
49238;DHT22;35069;47.906;1.892;2022-07-29T13:39:30;30.70;36.10
49238;DHT22;35069;47.906;1.892;2022-07-29T13:41:56;30.80;36.30
49238;DHT22;35069;47.906;1.892;2022-07-29T13:44:22;30.70;36.40
49238;DHT22;35069;47.906;1.892;2022-07-29T13:46:47;30.70;36.60
49238;DHT22;35069;47.906;1.892;2022-07-29T13:49:13;30.70;36.50
49238;DHT22;35069;47.906;1.892;2022-07-29T13:51:38;30.70;36.60
49238;DHT22;35069;47.906;1.892;2022-07-29T13:54:04;30.70;36.60
49238;DHT22;35069;47.906;1.892;2022-07-29T13:56:30;30.70;36.70
49238;DHT22;35069;47.906;1.892;2022-07-29T13:58:56;30.60;36.60
49238;DHT22;35069;47.906;1.892;2022-07-29T14:01:23;30.50;36.60
49238;DHT22;35069;47.906;1.892;2022-07-29T14:03:48;30.30;36.80
49238;DHT22;35069;47.906;1.892;2022-07-29T14:06:14;30.30;37.50
49238;DHT22;35069;47.906;1.892;2022-07-29T14:08:39;30.30;37.00
49238;DHT22;35069;47.906;1.892;2022-07-29T14:11:05;30.20;37.20
49238;DHT22;35069;47.906;1.892;2022-07-29T14:13:31;30.20;37.10
49238;DHT22;35069;47.906;1.892;2022-07-29T14:15:57;30.10;37.20
49238;DHT22;35069;47.906;1.892;2022-07-29T14:18:22;30.10;37.40
49238;DHT22;35069;47.906;1.892;2022-07-29T14:20:48;30.10;37.40
49238;DHT22;35069;47.906;1.892;2022-07-29T14:23:14;30.20;37.50
49238;DHT22;35069;47.906;1.892;2022-07-29T14:25:40;30.30;37.50
49238;DHT22;35069;47.906;1.892;2022-07-29T14:28:06;30.20;37.30
49238;DHT22;35069;47.906;1.892;2022-07-29T14:30:32;30.20;37.50
49238;DHT22;35069;47.906;1.892;2022-07-29T14:32:57;30.20;37.50
49238;DHT22;35069;47.906;1.892;2022-07-29T14:35:23;30.20;37.60
49238;DHT22;35069;47.906;1.892;2022-07-29T14:37:49;30.10;37.60
49238;DHT22;35069;47.906;1.892;2022-07-29T14:40:14;30.00;37.70
49238;DHT22;35069;47.906;1.892;2022-07-29T14:42:40;29.90;37.80
49238;DHT22;35069;47.906;1.892;2022-07-29T14:45:07;29.80;37.90
49238;DHT22;35069;47.906;1.892;2022-07-29T14:47:34;29.80;37.90
49238;DHT22;35069;47.906;1.892;2022-07-29T14:50:01;29.70;38.00
49238;DHT22;35069;47.906;1.892;2022-07-29T14:52:26;29.70;38.10
49238;DHT22;35069;47.906;1.892;2022-07-29T14:54:52;29.70;37.90
49238;DHT22;35069;47.906;1.892;2022-07-29T14:57:18;29.70;38.10
49238;DHT22;35069;47.906;1.892;2022-07-29T14:59:43;29.60;38.10
49238;DHT22;35069;47.906;1.892;2022-07-29T15:02:09;29.60;38.10
49238;DHT22;35069;47.906;1.892;2022-07-29T15:04:34;29.60;38.30
49238;DHT22;35069;47.906;1.892;2022-07-29T15:07:00;29.60;38.20
49238;DHT22;35069;47.906;1.892;2022-07-29T15:09:25;29.60;38.10
49238;DHT22;35069;47.906;1.892;2022-07-29T15:11:51;29.50;38.00
49238;DHT22;35069;47.906;1.892;2022-07-29T15:14:17;29.40;38.10
49238;DHT22;35069;47.906;1.892;2022-07-29T15:16:42;29.40;38.20
49238;DHT22;35069;47.906;1.892;2022-07-29T15:19:09;29.30;38.20
49238;DHT22;35069;47.906;1.892;2022-07-29T15:21:34;29.20;38.20
49238;DHT22;35069;47.906;1.892;2022-07-29T15:24:00;29.10;38.30
49238;DHT22;35069;47.906;1.892;2022-07-29T15:26:25;29.10;38.30
49238;DHT22;35069;47.906;1.892;2022-07-29T15:28:51;29.10;38.40
49238;DHT22;35069;47.906;1.892;2022-07-29T15:31:17;29.10;38.40
49238;DHT22;35069;47.906;1.892;2022-07-29T15:33:44;29.10;38.50
49238;DHT22;35069;47.906;1.892;2022-07-29T15:36:10;29.20;38.50
49238;DHT22;35069;47.906;1.892;2022-07-29T15:38:38;29.20;38.50
49238;DHT22;35069;47.906;1.892;2022-07-29T15:41:06;29.20;38.50
49238;DHT22;35069;47.906;1.892;2022-07-29T15:43:31;29.20;38.60
49238;DHT22;35069;47.906;1.892;2022-07-29T15:45:57;29.30;38.80
49238;DHT22;35069;47.906;1.892;2022-07-29T15:48:41;29.40;38.80
49238;DHT22;35069;47.906;1.892;2022-07-29T15:51:07;29.50;38.90
49238;DHT22;35069;47.906;1.892;2022-07-29T15:53:32;29.60;38.80
49238;DHT22;35069;47.906;1.892;2022-07-29T15:55:58;29.70;38.70
49238;DHT22;35069;47.906;1.892;2022-07-29T15:58:24;29.80;38.70
49238;DHT22;35069;47.906;1.892;2022-07-29T16:00:49;29.80;38.60
49238;DHT22;35069;47.906;1.892;2022-07-29T16:03:15;29.70;38.40
49238;DHT22;35069;47.906;1.892;2022-07-29T16:05:41;29.50;38.40
49238;DHT22;35069;47.906;1.892;2022-07-29T16:08:07;29.40;38.50
49238;DHT22;35069;47.906;1.892;2022-07-29T16:10:32;29.20;38.60
49238;DHT22;35069;47.906;1.892;2022-07-29T16:12:58;29.10;38.80
49238;DHT22;35069;47.906;1.892;2022-07-29T16:15:24;29.00;38.90